sensor_id;sensor_type;location;lat;lon;timestamp;P1;durP1;ratioP1;P2;durP2;ratioP2
12623;SDS011;6377;42.836;23.998;2024-01-07T00:02:07;16.60;;;8.37;;
12623;SDS011;6377;42.836;23.998;2024-01-07T00:04:34;6.60;;;2.87;;
12623;SDS011;6377;42.836;23.998;2024-01-07T00:07:03;3.27;;;1.50;;
12623;SDS011;6377;42.836;23.998;2024-01-07T00:09:31;3.43;;;1.93;;
12623;SDS011;6377;42.836;23.998;2024-01-07T00:11:58;3.30;;;2.33;;
12623;SDS011;6377;42.836;23.998;2024-01-07T00:14:25;7.40;;;3.43;;
12623;SDS011;6377;42.836;23.998;2024-01-07T00:16:52;3.10;;;1.77;;
12623;SDS011;6377;42.836;23.998;2024-01-07T00:19:19;4.73;;;2.80;;
12623;SDS011;6377;42.836;23.998;2024-01-07T00:21:47;2.83;;;2.40;;
12623;SDS011;6377;42.836;23.998;2024-01-07T00:24:16;4.57;;;4.03;;
12623;SDS011;6377;42.836;23.998;2024-01-07T00:26:43;9.17;;;4.20;;
12623;SDS011;6377;42.836;23.998;2024-01-07T00:29:11;4.87;;;3.90;;
12623;SDS011;6377;42.836;23.998;2024-01-07T00:31:38;8.70;;;3.63;;
12623;SDS011;6377;42.836;23.998;2024-01-07T00:34:05;5.63;;;3.43;;
12623;SDS011;6377;42.836;23.998;2024-01-07T00:36:32;4.80;;;3.03;;
12623;SDS011;6377;42.836;23.998;2024-01-07T00:38:59;3.43;;;2.00;;
12623;SDS011;6377;42.836;23.998;2024-01-07T00:41:28;8.90;;;4.73;;
12623;SDS011;6377;42.836;23.998;2024-01-07T00:43:55;4.67;;;2.27;;
12623;SDS011;6377;42.836;23.998;2024-01-07T00:46:23;7.33;;;5.17;;
12623;SDS011;6377;42.836;23.998;2024-01-07T00:48:50;16.77;;;12.50;;
12623;SDS011;6377;42.836;23.998;2024-01-07T00:51:17;4.53;;;2.60;;
12623;SDS011;6377;42.836;23.998;2024-01-07T00:53:44;6.60;;;3.90;;
12623;SDS011;6377;42.836;23.998;2024-01-07T00:56:11;4.67;;;3.03;;
12623;SDS011;6377;42.836;23.998;2024-01-07T00:58:40;3.00;;;2.60;;
12623;SDS011;6377;42.836;23.998;2024-01-07T01:01:07;1.93;;;1.70;;
12623;SDS011;6377;42.836;23.998;2024-01-07T01:03:34;3.17;;;1.60;;
12623;SDS011;6377;42.836;23.998;2024-01-07T01:06:01;2.43;;;1.50;;
12623;SDS011;6377;42.836;23.998;2024-01-07T01:08:29;2.57;;;1.70;;
12623;SDS011;6377;42.836;23.998;2024-01-07T01:10:56;4.53;;;3.13;;
12623;SDS011;6377;42.836;23.998;2024-01-07T01:13:23;6.27;;;3.30;;
12623;SDS011;6377;42.836;23.998;2024-01-07T01:15:52;2.73;;;1.80;;
12623;SDS011;6377;42.836;23.998;2024-01-07T01:18:20;3.17;;;2.10;;
12623;SDS011;6377;42.836;23.998;2024-01-07T01:20:47;3.67;;;1.73;;
12623;SDS011;6377;42.836;23.998;2024-01-07T01:23:15;3.40;;;2.40;;
12623;SDS011;6377;42.836;23.998;2024-01-07T01:25:42;4.57;;;3.10;;
12623;SDS011;6377;42.836;23.998;2024-01-07T01:28:09;5.67;;;3.10;;
12623;SDS011;6377;42.836;23.998;2024-01-07T01:30:36;10.17;;;6.43;;
12623;SDS011;6377;42.836;23.998;2024-01-07T01:33:05;3.73;;;2.67;;
12623;SDS011;6377;42.836;23.998;2024-01-07T01:35:32;3.47;;;1.77;;
12623;SDS011;6377;42.836;23.998;2024-01-07T01:37:59;3.67;;;1.53;;
12623;SDS011;6377;42.836;23.998;2024-01-07T01:40:27;5.00;;;1.90;;
12623;SDS011;6377;42.836;23.998;2024-01-07T01:42:54;2.17;;;1.70;;
12623;SDS011;6377;42.836;23.998;2024-01-07T01:45:21;3.23;;;1.60;;
12623;SDS011;6377;42.836;23.998;2024-01-07T01:47:48;3.43;;;2.20;;
12623;SDS011;6377;42.836;23.998;2024-01-07T01:50:17;2.17;;;1.90;;
12623;SDS011;6377;42.836;23.998;2024-01-07T01:52:45;2.13;;;1.40;;
12623;SDS011;6377;42.836;23.998;2024-01-07T01:55:12;6.30;;;4.27;;
12623;SDS011;6377;42.836;23.998;2024-01-07T01:57:40;9.00;;;5.77;;
12623;SDS011;6377;42.836;23.998;2024-01-07T02:00:07;4.03;;;2.33;;
12623;SDS011;6377;42.836;23.998;2024-01-07T02:02:35;2.97;;;2.07;;
12623;SDS011;6377;42.836;23.998;2024-01-07T02:05:02;4.87;;;2.37;;
12623;SDS011;6377;42.836;23.998;2024-01-07T02:07:32;3.77;;;2.73;;
12623;SDS011;6377;42.836;23.998;2024-01-07T02:10:00;4.67;;;1.63;;
12623;SDS011;6377;42.836;23.998;2024-01-07T02:12:27;5.07;;;3.27;;
12623;SDS011;6377;42.836;23.998;2024-01-07T02:14:54;7.60;;;4.13;;
12623;SDS011;6377;42.836;23.998;2024-01-07T02:17:21;5.10;;;3.10;;
12623;SDS011;6377;42.836;23.998;2024-01-07T02:19:49;5.43;;;3.00;;
12623;SDS011;6377;42.836;23.998;2024-01-07T02:22:16;5.87;;;4.07;;
12623;SDS011;6377;42.836;23.998;2024-01-07T02:24:45;5.13;;;3.37;;
12623;SDS011;6377;42.836;23.998;2024-01-07T02:27:12;6.03;;;3.33;;
12623;SDS011;6377;42.836;23.998;2024-01-07T02:29:40;4.50;;;2.47;;
12623;SDS011;6377;42.836;23.998;2024-01-07T02:32:07;5.77;;;2.90;;
12623;SDS011;6377;42.836;23.998;2024-01-07T02:34:34;4.60;;;2.70;;
12623;SDS011;6377;42.836;23.998;2024-01-07T02:37:01;6.93;;;3.27;;
12623;SDS011;6377;42.836;23.998;2024-01-07T02:39:29;5.00;;;2.80;;
12623;SDS011;6377;42.836;23.998;2024-01-07T02:41:58;5.80;;;3.73;;
12623;SDS011;6377;42.836;23.998;2024-01-07T02:44:25;14.00;;;7.20;;
12623;SDS011;6377;42.836;23.998;2024-01-07T02:46:52;7.30;;;5.10;;
12623;SDS011;6377;42.836;23.998;2024-01-07T02:49:19;5.53;;;3.27;;
12623;SDS011;6377;42.836;23.998;2024-01-07T02:51:46;6.57;;;3.60;;
12623;SDS011;6377;42.836;23.998;2024-01-07T02:54:15;10.67;;;5.57;;
12623;SDS011;6377;42.836;23.998;2024-01-07T02:56:42;4.23;;;3.10;;
12623;SDS011;6377;42.836;23.998;2024-01-07T02:59:11;3.43;;;2.43;;
12623;SDS011;6377;42.836;23.998;2024-01-07T03:01:38;6.53;;;3.27;;
12623;SDS011;6377;42.836;23.998;2024-01-07T03:04:07;11.50;;;5.97;;
12623;SDS011;6377;42.836;23.998;2024-01-07T03:06:36;11.73;;;6.77;;
12623;SDS011;6377;42.836;23.998;2024-01-07T03:09:03;11.60;;;6.50;;
12623;SDS011;6377;42.836;23.998;2024-01-07T03:11:31;9.63;;;5.90;;
12623;SDS011;6377;42.836;23.998;2024-01-07T03:13:58;10.70;;;6.23;;
12623;SDS011;6377;42.836;23.998;2024-01-07T03:16:27;10.40;;;6.57;;
12623;SDS011;6377;42.836;23.998;2024-01-07T03:18:54;8.83;;;5.40;;
12623;SDS011;6377;42.836;23.998;2024-01-07T03:21:22;9.50;;;5.73;;
12623;SDS011;6377;42.836;23.998;2024-01-07T03:23:50;9.93;;;4.83;;
12623;SDS011;6377;42.836;23.998;2024-01-07T03:26:18;6.80;;;4.87;;
12623;SDS011;6377;42.836;23.998;2024-01-07T03:28:45;11.77;;;6.30;;
12623;SDS011;6377;42.836;23.998;2024-01-07T03:31:13;8.77;;;6.07;;
12623;SDS011;6377;42.836;23.998;2024-01-07T03:33:43;9.73;;;6.80;;
12623;SDS011;6377;42.836;23.998;2024-01-07T03:36:11;9.07;;;6.50;;
12623;SDS011;6377;42.836;23.998;2024-01-07T03:38:39;8.60;;;6.00;;
12623;SDS011;6377;42.836;23.998;2024-01-07T03:41:07;7.30;;;5.17;;
12623;SDS011;6377;42.836;23.998;2024-01-07T03:43:34;10.00;;;6.70;;
12623;SDS011;6377;42.836;23.998;2024-01-07T03:46:02;11.57;;;7.40;;
12623;SDS011;6377;42.836;23.998;2024-01-07T03:48:29;14.50;;;8.67;;
12623;SDS011;6377;42.836;23.998;2024-01-07T03:50:57;22.60;;;11.57;;
12623;SDS011;6377;42.836;23.998;2024-01-07T03:53:25;16.53;;;9.17;;
12623;SDS011;6377;42.836;23.998;2024-01-07T03:55:52;18.97;;;11.37;;
12623;SDS011;6377;42.836;23.998;2024-01-07T03:58:19;25.93;;;14.17;;
12623;SDS011;6377;42.836;23.998;2024-01-07T04:00:47;25.10;;;16.03;;
12623;SDS011;6377;42.836;23.998;2024-01-07T04:03:14;27.13;;;16.23;;
12623;SDS011;6377;42.836;23.998;2024-01-07T04:05:41;24.67;;;14.90;;
12623;SDS011;6377;42.836;23.998;2024-01-07T04:08:11;23.73;;;13.83;;
12623;SDS011;6377;42.836;23.998;2024-01-07T04:10:41;23.10;;;12.87;;
12623;SDS011;6377;42.836;23.998;2024-01-07T04:13:08;19.17;;;12.60;;
12623;SDS011;6377;42.836;23.998;2024-01-07T04:15:36;21.07;;;12.60;;
12623;SDS011;6377;42.836;23.998;2024-01-07T04:18:03;23.50;;;12.10;;
12623;SDS011;6377;42.836;23.998;2024-01-07T04:20:31;24.10;;;14.00;;
12623;SDS011;6377;42.836;23.998;2024-01-07T04:22:58;21.83;;;12.60;;
12623;SDS011;6377;42.836;23.998;2024-01-07T04:25:27;17.40;;;10.97;;
12623;SDS011;6377;42.836;23.998;2024-01-07T04:27:54;15.53;;;9.93;;
12623;SDS011;6377;42.836;23.998;2024-01-07T04:30:21;15.53;;;9.83;;
12623;SDS011;6377;42.836;23.998;2024-01-07T04:32:48;16.63;;;9.17;;
12623;SDS011;6377;42.836;23.998;2024-01-07T04:35:15;17.27;;;11.33;;
12623;SDS011;6377;42.836;23.998;2024-01-07T04:37:42;15.00;;;9.23;;
12623;SDS011;6377;42.836;23.998;2024-01-07T04:40:10;9.53;;;6.57;;
12623;SDS011;6377;42.836;23.998;2024-01-07T04:42:39;6.40;;;4.97;;
12623;SDS011;6377;42.836;23.998;2024-01-07T04:45:06;9.27;;;6.80;;
12623;SDS011;6377;42.836;23.998;2024-01-07T04:47:34;15.50;;;10.67;;
12623;SDS011;6377;42.836;23.998;2024-01-07T04:50:01;23.97;;;15.27;;
12623;SDS011;6377;42.836;23.998;2024-01-07T04:52:29;19.83;;;14.10;;
12623;SDS011;6377;42.836;23.998;2024-01-07T04:54:56;10.93;;;8.07;;
12623;SDS011;6377;42.836;23.998;2024-01-07T04:57:24;11.07;;;6.50;;
12623;SDS011;6377;42.836;23.998;2024-01-07T04:59:52;10.00;;;5.67;;
12623;SDS011;6377;42.836;23.998;2024-01-07T05:02:19;5.27;;;3.67;;
12623;SDS011;6377;42.836;23.998;2024-01-07T05:04:46;9.03;;;5.80;;
12623;SDS011;6377;42.836;23.998;2024-01-07T05:07:13;11.17;;;6.63;;
12623;SDS011;6377;42.836;23.998;2024-01-07T05:09:40;32.00;;;24.63;;
12623;SDS011;6377;42.836;23.998;2024-01-07T05:12:08;20.37;;;16.43;;
12623;SDS011;6377;42.836;23.998;2024-01-07T05:14:35;21.47;;;14.00;;
12623;SDS011;6377;42.836;23.998;2024-01-07T05:17:04;24.47;;;16.80;;
12623;SDS011;6377;42.836;23.998;2024-01-07T05:19:31;24.83;;;16.70;;
12623;SDS011;6377;42.836;23.998;2024-01-07T05:21:58;22.70;;;15.50;;
12623;SDS011;6377;42.836;23.998;2024-01-07T05:24:25;22.53;;;15.13;;
12623;SDS011;6377;42.836;23.998;2024-01-07T05:26:53;21.13;;;13.33;;
12623;SDS011;6377;42.836;23.998;2024-01-07T05:29:20;23.80;;;13.13;;
12623;SDS011;6377;42.836;23.998;2024-01-07T05:31:47;11.63;;;8.37;;
12623;SDS011;6377;42.836;23.998;2024-01-07T05:34:16;17.93;;;12.43;;
12623;SDS011;6377;42.836;23.998;2024-01-07T05:36:43;50.60;;;33.57;;
12623;SDS011;6377;42.836;23.998;2024-01-07T05:39:10;87.60;;;62.43;;
12623;SDS011;6377;42.836;23.998;2024-01-07T05:41:37;15.53;;;9.07;;
12623;SDS011;6377;42.836;23.998;2024-01-07T05:44:06;16.50;;;11.93;;
12623;SDS011;6377;42.836;23.998;2024-01-07T05:46:33;20.13;;;13.97;;
12623;SDS011;6377;42.836;23.998;2024-01-07T05:49:01;44.57;;;37.10;;
12623;SDS011;6377;42.836;23.998;2024-01-07T05:51:31;39.37;;;29.97;;
12623;SDS011;6377;42.836;23.998;2024-01-07T05:53:58;20.67;;;13.87;;
12623;SDS011;6377;42.836;23.998;2024-01-07T05:56:25;25.40;;;17.87;;
12623;SDS011;6377;42.836;23.998;2024-01-07T05:58:52;30.80;;;19.53;;
12623;SDS011;6377;42.836;23.998;2024-01-07T06:01:20;22.20;;;13.97;;
12623;SDS011;6377;42.836;23.998;2024-01-07T06:03:48;17.30;;;11.17;;
12623;SDS011;6377;42.836;23.998;2024-01-07T06:06:15;16.37;;;10.43;;
12623;SDS011;6377;42.836;23.998;2024-01-07T06:08:43;2.73;;;2.27;;
12623;SDS011;6377;42.836;23.998;2024-01-07T06:11:10;9.17;;;6.93;;
12623;SDS011;6377;42.836;23.998;2024-01-07T06:13:43;13.63;;;8.47;;
12623;SDS011;6377;42.836;23.998;2024-01-07T06:16:11;10.67;;;7.47;;
12623;SDS011;6377;42.836;23.998;2024-01-07T06:18:38;10.27;;;6.57;;
12623;SDS011;6377;42.836;23.998;2024-01-07T06:21:05;18.53;;;12.20;;
12623;SDS011;6377;42.836;23.998;2024-01-07T06:23:32;12.07;;;8.43;;
12623;SDS011;6377;42.836;23.998;2024-01-07T06:26:02;18.07;;;14.43;;
12623;SDS011;6377;42.836;23.998;2024-01-07T06:28:29;34.07;;;20.73;;
12623;SDS011;6377;42.836;23.998;2024-01-07T06:30:57;15.63;;;10.20;;
12623;SDS011;6377;42.836;23.998;2024-01-07T06:33:24;10.17;;;5.87;;
12623;SDS011;6377;42.836;23.998;2024-01-07T06:35:51;10.13;;;7.20;;
12623;SDS011;6377;42.836;23.998;2024-01-07T06:38:18;7.73;;;5.50;;
12623;SDS011;6377;42.836;23.998;2024-01-07T06:40:45;9.47;;;6.53;;
12623;SDS011;6377;42.836;23.998;2024-01-07T06:43:14;7.27;;;4.83;;
12623;SDS011;6377;42.836;23.998;2024-01-07T06:45:42;9.47;;;6.53;;
12623;SDS011;6377;42.836;23.998;2024-01-07T06:48:09;14.00;;;11.07;;
12623;SDS011;6377;42.836;23.998;2024-01-07T06:50:36;12.53;;;9.80;;
12623;SDS011;6377;42.836;23.998;2024-01-07T06:53:03;20.33;;;14.37;;
12623;SDS011;6377;42.836;23.998;2024-01-07T06:55:31;23.10;;;18.40;;
12623;SDS011;6377;42.836;23.998;2024-01-07T06:57:58;21.67;;;13.70;;
12623;SDS011;6377;42.836;23.998;2024-01-07T07:00:26;23.00;;;14.43;;
12623;SDS011;6377;42.836;23.998;2024-01-07T07:02:54;22.13;;;15.40;;
12623;SDS011;6377;42.836;23.998;2024-01-07T07:05:21;14.93;;;10.60;;
12623;SDS011;6377;42.836;23.998;2024-01-07T07:07:48;23.10;;;16.20;;
12623;SDS011;6377;42.836;23.998;2024-01-07T07:10:15;22.13;;;15.80;;
12623;SDS011;6377;42.836;23.998;2024-01-07T07:12:42;21.30;;;15.83;;
12623;SDS011;6377;42.836;23.998;2024-01-07T07:15:10;43.23;;;28.33;;
12623;SDS011;6377;42.836;23.998;2024-01-07T07:17:39;913.97;;;325.67;;
12623;SDS011;6377;42.836;23.998;2024-01-07T07:20:06;1176.87;;;451.10;;
12623;SDS011;6377;42.836;23.998;2024-01-07T07:22:34;301.93;;;120.37;;
12623;SDS011;6377;42.836;23.998;2024-01-07T07:25:01;42.43;;;34.10;;
12623;SDS011;6377;42.836;23.998;2024-01-07T07:27:29;16.90;;;13.33;;
12623;SDS011;6377;42.836;23.998;2024-01-07T07:29:56;22.33;;;16.50;;
12623;SDS011;6377;42.836;23.998;2024-01-07T07:32:23;13.03;;;11.27;;
12623;SDS011;6377;42.836;23.998;2024-01-07T07:34:52;11.63;;;8.73;;
12623;SDS011;6377;42.836;23.998;2024-01-07T07:37:19;14.63;;;9.17;;
12623;SDS011;6377;42.836;23.998;2024-01-07T07:39:46;17.27;;;11.47;;
12623;SDS011;6377;42.836;23.998;2024-01-07T07:42:14;31.80;;;22.10;;
12623;SDS011;6377;42.836;23.998;2024-01-07T07:44:41;14.77;;;11.07;;
12623;SDS011;6377;42.836;23.998;2024-01-07T07:47:08;30.07;;;16.97;;
12623;SDS011;6377;42.836;23.998;2024-01-07T07:49:37;18.00;;;11.07;;
12623;SDS011;6377;42.836;23.998;2024-01-07T07:52:07;54.00;;;37.27;;
12623;SDS011;6377;42.836;23.998;2024-01-07T07:54:34;62.97;;;37.13;;
12623;SDS011;6377;42.836;23.998;2024-01-07T07:57:03;32.67;;;21.23;;
12623;SDS011;6377;42.836;23.998;2024-01-07T07:59:31;28.83;;;17.90;;
12623;SDS011;6377;42.836;23.998;2024-01-07T08:01:58;29.70;;;19.13;;
12623;SDS011;6377;42.836;23.998;2024-01-07T08:04:25;31.53;;;21.60;;
12623;SDS011;6377;42.836;23.998;2024-01-07T08:06:53;36.93;;;22.90;;
12623;SDS011;6377;42.836;23.998;2024-01-07T08:09:22;23.97;;;15.90;;
12623;SDS011;6377;42.836;23.998;2024-01-07T08:11:51;20.10;;;14.30;;
12623;SDS011;6377;42.836;23.998;2024-01-07T08:14:18;41.30;;;25.20;;
12623;SDS011;6377;42.836;23.998;2024-01-07T08:16:45;16.77;;;11.43;;
12623;SDS011;6377;42.836;23.998;2024-01-07T08:19:12;29.03;;;20.53;;
12623;SDS011;6377;42.836;23.998;2024-01-07T08:21:39;19.40;;;13.13;;
12623;SDS011;6377;42.836;23.998;2024-01-07T08:24:06;22.83;;;13.80;;
12623;SDS011;6377;42.836;23.998;2024-01-07T08:26:37;40.03;;;21.73;;
12623;SDS011;6377;42.836;23.998;2024-01-07T08:29:04;24.47;;;14.13;;
12623;SDS011;6377;42.836;23.998;2024-01-07T08:31:31;22.57;;;14.20;;
12623;SDS011;6377;42.836;23.998;2024-01-07T08:33:58;29.40;;;19.30;;
12623;SDS011;6377;42.836;23.998;2024-01-07T08:36:26;21.43;;;14.30;;
12623;SDS011;6377;42.836;23.998;2024-01-07T08:38:53;17.03;;;13.67;;
12623;SDS011;6377;42.836;23.998;2024-01-07T08:41:20;9.63;;;7.87;;
12623;SDS011;6377;42.836;23.998;2024-01-07T08:43:49;11.33;;;8.13;;
12623;SDS011;6377;42.836;23.998;2024-01-07T08:46:16;17.10;;;10.80;;
12623;SDS011;6377;42.836;23.998;2024-01-07T08:48:45;18.13;;;12.03;;
12623;SDS011;6377;42.836;23.998;2024-01-07T08:51:12;21.43;;;16.77;;
12623;SDS011;6377;42.836;23.998;2024-01-07T08:53:39;25.07;;;19.87;;
12623;SDS011;6377;42.836;23.998;2024-01-07T08:56:07;25.13;;;19.40;;
12623;SDS011;6377;42.836;23.998;2024-01-07T08:58:34;28.87;;;22.13;;
12623;SDS011;6377;42.836;23.998;2024-01-07T09:01:03;35.43;;;27.13;;
12623;SDS011;6377;42.836;23.998;2024-01-07T09:03:31;39.07;;;27.93;;
12623;SDS011;6377;42.836;23.998;2024-01-07T09:05:58;21.43;;;14.03;;
12623;SDS011;6377;42.836;23.998;2024-01-07T09:08:25;8.10;;;5.57;;
12623;SDS011;6377;42.836;23.998;2024-01-07T09:35:31;11.70;;;8.93;;
12623;SDS011;6377;42.836;23.998;2024-01-07T09:38:00;22.27;;;15.30;;
12623;SDS011;6377;42.836;23.998;2024-01-07T09:40:42;30.37;;;15.57;;
12623;SDS011;6377;42.836;23.998;2024-01-07T09:43:11;22.43;;;12.30;;
12623;SDS011;6377;42.836;23.998;2024-01-07T09:45:39;91.37;;;51.57;;
12623;SDS011;6377;42.836;23.998;2024-01-07T09:48:09;7.07;;;4.77;;
12623;SDS011;6377;42.836;23.998;2024-01-07T09:50:38;35.80;;;30.07;;
12623;SDS011;6377;42.836;23.998;2024-01-07T09:53:05;34.10;;;19.43;;
12623;SDS011;6377;42.836;23.998;2024-01-07T10:08:35;20.80;;;14.00;;
12623;SDS011;6377;42.836;23.998;2024-01-07T10:11:04;10.87;;;8.20;;
12623;SDS011;6377;42.836;23.998;2024-01-07T10:13:34;17.97;;;12.13;;
12623;SDS011;6377;42.836;23.998;2024-01-07T10:16:02;5.77;;;5.10;;
12623;SDS011;6377;42.836;23.998;2024-01-07T10:18:30;4.43;;;3.57;;
12623;SDS011;6377;42.836;23.998;2024-01-07T10:21:01;15.50;;;10.03;;
12623;SDS011;6377;42.836;23.998;2024-01-07T10:23:31;3.47;;;2.57;;
12623;SDS011;6377;42.836;23.998;2024-01-07T10:26:00;5.30;;;3.27;;
12623;SDS011;6377;42.836;23.998;2024-01-07T10:31:03;9.43;;;5.30;;
12623;SDS011;6377;42.836;23.998;2024-01-07T10:33:31;4.87;;;3.50;;
12623;SDS011;6377;42.836;23.998;2024-01-07T10:52:25;4.40;;;3.20;;
12623;SDS011;6377;42.836;23.998;2024-01-07T10:54:58;7.10;;;4.10;;
12623;SDS011;6377;42.836;23.998;2024-01-07T10:57:42;24.93;;;9.20;;
12623;SDS011;6377;42.836;23.998;2024-01-07T11:00:29;10.17;;;6.37;;
12623;SDS011;6377;42.836;23.998;2024-01-07T11:03:04;8.30;;;5.40;;
12623;SDS011;6377;42.836;23.998;2024-01-07T11:06:19;5.40;;;4.47;;
12623;SDS011;6377;42.836;23.998;2024-01-07T11:30:19;11.33;;;7.27;;
12623;SDS011;6377;42.836;23.998;2024-01-07T12:53:34;29.00;;;16.07;;
12623;SDS011;6377;42.836;23.998;2024-01-07T12:56:06;8.50;;;5.00;;
12623;SDS011;6377;42.836;23.998;2024-01-07T12:58:35;2.83;;;1.80;;
12623;SDS011;6377;42.836;23.998;2024-01-07T13:01:03;6.50;;;3.27;;
12623;SDS011;6377;42.836;23.998;2024-01-07T13:03:31;19.80;;;15.23;;
12623;SDS011;6377;42.836;23.998;2024-01-07T13:05:59;24.53;;;16.90;;
12623;SDS011;6377;42.836;23.998;2024-01-07T13:08:27;10.23;;;6.80;;
12623;SDS011;6377;42.836;23.998;2024-01-07T13:10:56;9.40;;;6.07;;
12623;SDS011;6377;42.836;23.998;2024-01-07T13:13:26;9.70;;;5.37;;
12623;SDS011;6377;42.836;23.998;2024-01-07T13:16:02;12.17;;;8.30;;
12623;SDS011;6377;42.836;23.998;2024-01-07T13:45:47;9.90;;;7.70;;
12623;SDS011;6377;42.836;23.998;2024-01-07T16:11:29;23.23;;;16.33;;
12623;SDS011;6377;42.836;23.998;2024-01-07T16:32:09;13.27;;;8.50;;
12623;SDS011;6377;42.836;23.998;2024-01-07T16:34:52;16.10;;;9.70;;
